^^
Grace C. Lehan Memorial Weather Station Historical Data
Daily Summary for August 05, 2022 Units:  English    Metric   Both
Daily Weekly Monthly Yearly
  High: Low: Average:
Temperature: 95 °F 74.9 °F 83.6 °F
Dew Point: 76 °F 69.4 °F 72.6 °F
Humidity: 87% 51.3% 71%
Wind Speed: 2.4mph 0mph 0.1mph
Wind Gust: 7mph - -
Wind- - West
Pressure: 30.11 in 29.99 in -
Precipitation: 0.00 in    
 
 
Tabular Data for August 05, 2022
Time Temperature Dew Point Pressure Wind Wind Speed Wind Gust Humidity Rainfall Rate (Hourly) solar
00:09 79.8 °F 71.7 °F 30.01 in Calm     76.4% 0.00 in 0 W/m2
00:14 79.6 °F 71.8 °F 30.00 in Calm     77% 0.00 in 0 W/m2
00:19 79.5 °F 71.7 °F 30.00 in Calm     77% 0.00 in 0 W/m2
00:24 79.4 °F 72 °F 30.00 in Calm     78% 0.00 in 0 W/m2
00:29 79.3 °F 71.9 °F 30.00 in Calm     78% 0.00 in 0 W/m2
00:34 79.2 °F 71.7 °F 30.00 in Calm     78% 0.00 in 0 W/m2
00:39 79.1 °F 71.9 °F 30.00 in Calm     78.7% 0.00 in 0 W/m2
00:44 79 °F 71.9 °F 30.00 in Calm     79% 0.00 in 0 W/m2
00:49 78.9 °F 71.8 °F 30.00 in Calm     79% 0.00 in 0 W/m2
00:54 78.7 °F 71.7 °F 30.00 in Calm     79% 0.00 in 0 W/m2
00:59 78.6 °F 71.6 °F 30.00 in Calm     79.2% 0.00 in 0 W/m2
01:04 78.4 °F 71.8 °F 30.00 in Calm     80% 0.00 in 0 W/m2
01:09 78.3 °F 71.6 °F 30.00 in Calm     80% 0.00 in 0 W/m2
01:14 78.2 °F 71.6 °F 30.00 in Calm     80.3% 0.00 in 0 W/m2
01:19 78 °F 71.7 °F 29.99 in Calm     81% 0.00 in 0 W/m2
01:24 77.9 °F 71.6 °F 30.00 in Calm     81.1% 0.00 in 0 W/m2
01:29 77.8 °F 71.8 °F 30.00 in Calm     82% 0.00 in 0 W/m2
01:34 77.6 °F 71.7 °F 30.00 in Calm     82% 0.00 in 0 W/m2
01:39 77.5 °F 71.6 °F 30.00 in Calm     82% 0.00 in 0 W/m2
01:44 77.4 °F 71.8 °F 30.00 in Calm     82.9% 0.00 in 0 W/m2
01:49 77.3 °F 71.7 °F 30.00 in Calm     83% 0.00 in 0 W/m2
01:54 77.1 °F 71.6 °F 29.99 in Calm     83% 0.00 in 0 W/m2
01:59 77 °F 71.6 °F 30.00 in Calm     83.4% 0.00 in 0 W/m2
02:04 76.9 °F 71.7 °F 29.99 in Calm     84% 0.00 in 0 W/m2
02:09 76.8 °F 71.6 °F 29.99 in Calm     84% 0.00 in 0 W/m2
02:14 76.7 °F 71.5 °F 29.99 in Calm     84% 0.00 in 0 W/m2
02:19 76.6 °F 71.5 °F 29.99 in Calm     84.3% 0.00 in 0 W/m2
02:24 76.5 °F 71.7 °F 29.99 in Calm     85% 0.00 in 0 W/m2
02:29 76.4 °F 71.5 °F 29.99 in Calm     85% 0.00 in 0 W/m2
02:34 76.3 °F 71.4 °F 29.99 in Calm     85% 0.00 in 0 W/m2
02:39 76.2 °F 71.3 °F 29.99 in Calm     85% 0.00 in 0 W/m2
02:44 76 °F 71.2 °F 29.99 in Calm     85% 0.00 in 0 W/m2
02:49 75.9 °F 71.1 °F 29.99 in Calm     85% 0.00 in 0 W/m2
02:54 75.9 °F 71.3 °F 29.99 in Calm     85.8% 0.00 in 0 W/m2
02:59 75.8 °F 71.4 °F 29.99 in Calm     86.3% 0.00 in 0 W/m2
03:04 75.7 °F 71.6 °F 29.99 in Calm     87% 0.00 in 0 W/m2
03:09 75.7 °F 71.5 °F 29.99 in Calm     87% 0.00 in 0 W/m2
03:14 75.6 °F 71.4 °F 29.99 in Calm     87% 0.00 in 0 W/m2
03:19 75.5 °F 71.3 °F 29.99 in Calm     87% 0.00 in 0 W/m2
03:24 75.4 °F 71.3 °F 30.00 in Calm     87% 0.00 in 0 W/m2
03:29 75.4 °F 71.3 °F 30.00 in Calm     87% 0.00 in 0 W/m2
03:34 75.3 °F 71.2 °F 30.00 in Calm     87% 0.00 in 0 W/m2
03:39 75.3 °F 71.2 °F 30.00 in Calm     87% 0.00 in 0 W/m2
03:44 75.2 °F 71.1 °F 30.00 in Calm     87% 0.00 in 0 W/m2
03:49 75.2 °F 71.1 °F 30.00 in Calm     87% 0.00 in 0 W/m2
03:54 75.2 °F 71.1 °F 30.00 in Calm     87% 0.00 in 0 W/m2
03:59 75.2 °F 71.1 °F 30.00 in Calm     87% 0.00 in 0 W/m2
04:14 75.2 °F 71.1 °F 30.00 in Calm     87% 0.00 in 0 W/m2
04:19 75.2 °F 71 °F 30.00 in Calm     87% 0.00 in 0 W/m2
04:24 75.1 °F 71 °F 30.00 in Calm     87% 0.00 in 0 W/m2
04:29 75.1 °F 71 °F 30.01 in Calm     87% 0.00 in 0 W/m2
04:34 75.1 °F 71 °F 30.01 in Calm     87% 0.00 in 0 W/m2
04:39 75.1 °F 70.8 °F 30.01 in Calm     86.5% 0.00 in 0 W/m2
04:44 75.1 °F 70.6 °F 30.01 in Calm     86% 0.00 in 0 W/m2
04:49 75.1 °F 70.6 °F 30.01 in Calm     86% 0.00 in 0 W/m2
04:54 75.1 °F 70.6 °F 30.01 in Calm     86% 0.00 in 0 W/m2
04:59 75 °F 70.5 °F 30.01 in Calm     86% 0.00 in 0 W/m2
05:04 75 °F 70.5 °F 30.01 in Calm     86% 0.00 in 0 W/m2
05:09 75 °F 70.5 °F 30.01 in Calm     86% 0.00 in 0 W/m2
05:14 75 °F 70.5 °F 30.01 in Calm     85.9% 0.00 in 0 W/m2
05:19 75 °F 70.3 °F 30.01 in Calm     85.2% 0.00 in 0 W/m2
05:24 75 °F 70.2 °F 30.02 in Calm     85% 0.00 in 0 W/m2
05:29 75 °F 70.2 °F 30.02 in Calm     85% 0.00 in 0 W/m2
05:34 75 °F 70.2 °F 30.02 in Calm     85% 0.00 in 0 W/m2
05:39 74.9 °F 70 °F 30.02 in Calm     84.7% 0.00 in 0 W/m2
05:44 74.9 °F 69.9 °F 30.03 in Calm     84.3% 0.00 in 0 W/m2
05:49 74.9 °F 69.7 °F 30.03 in Calm     84% 0.00 in 0 W/m2
05:54 74.9 °F 69.5 °F 30.03 in Calm     83.2% 0.00 in 0 W/m2
05:59 74.9 °F 69.4 °F 30.03 in Calm     83% 0.00 in 7 W/m2
06:04 75 °F 69.5 °F 30.03 in Calm     83% 0.00 in 11 W/m2
06:09 75 °F 69.5 °F 30.03 in Calm     83% 0.00 in 16 W/m2
06:14 75 °F 69.7 °F 30.04 in Calm     83.7% 0.00 in 18 W/m2
06:19 75 °F 69.9 °F 30.04 in Calm     84% 0.00 in 19 W/m2
06:24 75.1 °F 70 °F 30.04 in Calm     84.1% 0.00 in 25 W/m2
06:29 75 °F 70.2 °F 30.05 in Calm     84.9% 0.00 in 32 W/m2
06:34 75 °F 69.8 °F 30.05 in Calm     84% 0.00 in 40 W/m2
06:39 74.9 °F 69.7 °F 30.05 in Calm     84% 0.00 in 47 W/m2
06:44 74.9 °F 69.7 °F 30.05 in Calm     84% 0.00 in 63 W/m2
06:49 75 °F 69.8 °F 30.05 in Calm     84% 0.00 in 77 W/m2
06:54 75.2 °F 69.7 °F 30.05 in Calm     83.2% 0.00 in 70 W/m2
06:59 75.6 °F 70 °F 30.05 in Calm     83% 0.00 in 91 W/m2
07:04 76 °F 70.3 °F 30.05 in Calm     82.6% 0.00 in 88 W/m2
07:09 76.3 °F 70.3 °F 30.05 in Calm     81.6% 0.00 in 62 W/m2
07:14 76.6 °F 70 °F 30.05 in Calm     80.3% 0.00 in 65 W/m2
07:19 76.7 °F 70 °F 30.05 in Calm     79.8% 0.00 in 65 W/m2
07:24 76.9 °F 69.9 °F 30.05 in Calm     79% 0.00 in 72 W/m2
07:29 77 °F 70 °F 30.05 in Calm     79% 0.00 in 72 W/m2
07:34 77.2 °F 70.1 °F 30.05 in Calm     79% 0.00 in 83 W/m2
07:39 77.3 °F 70.5 °F 30.05 in Calm     79.6% 0.00 in 95 W/m2
07:44 77.5 °F 71 °F 30.05 in Calm     80.6% 0.00 in 97 W/m2
07:49 77.6 °F 70.9 °F 30.05 in Calm     79.8% 0.00 in 95 W/m2
07:54 77.6 °F 70.5 °F 30.06 in Calm     78.7% 0.00 in 95 W/m2
07:59 77.7 °F 70.3 °F 30.06 in Calm     78% 0.00 in 91 W/m2
08:00 77.7 °F 70.3 °F 30.06 in Calm     78% 0.00 in 88 W/m2
08:09 77.9 °F 70.5 °F 30.06 in Calm     78% 0.00 in 102 W/m2
08:14 78.1 °F 70.7 °F 30.06 in Calm     78% 0.00 in 111 W/m2
08:19 78.3 °F 70.9 °F 30.06 in Calm     78% 0.00 in 120 W/m2
08:24 78.4 °F 70.7 °F 30.07 in Calm     77.3% 0.00 in 128 W/m2
08:29 78.6 °F 70.8 °F 30.06 in Calm     77.1% 0.00 in 128 W/m2
08:34 78.8 °F 71.1 °F 30.07 in Calm     77.4% 0.00 in 127 W/m2
08:39 79.1 °F 71.6 °F 30.07 in Calm     78% 0.00 in 123 W/m2
08:44 79.3 °F 71.8 °F 30.07 in Calm     77.9% 0.00 in 111 W/m2
08:49 79.4 °F 71.6 °F 30.07 in Calm     77% 0.00 in 113 W/m2
08:54 79.6 °F 71.4 °F 30.07 in Calm     76.3% 0.00 in 120 W/m2
08:59 79.7 °F 71.4 °F 30.07 in Calm     76% 0.00 in 127 W/m2
09:04 79.8 °F 71.2 °F 30.07 in Calm     75% 0.00 in 144 W/m2
09:09 79.9 °F 71.6 °F 30.07 in Calm     75.8% 0.00 in 172 W/m2
09:14 80.2 °F 71.8 °F 30.08 in Calm     75.7% 0.00 in 237 W/m2
09:19 80.3 °F 71.9 °F 30.08 in Calm     75.4% 0.00 in 295 W/m2
09:24 80.6 °F 71.9 °F 30.08 in Calm     74.9% 0.00 in 408 W/m2
09:29 80.9 °F 71.8 °F 30.08 in Calm     73.8% 0.00 in 339 W/m2
09:34 81.3 °F 71.8 °F 30.08 in Calm     72.9% 0.00 in 316 W/m2
09:39 81.7 °F 71.5 °F 30.08 in Calm     71.2% 0.00 in 246 W/m2
09:44 82.1 °F 72.2 °F 30.08 in Calm     72% 0.00 in 171 W/m2
09:49 82.4 °F 71.9 °F 30.08 in Calm     70.5% 0.00 in 142 W/m2
09:54 82.6 °F 71.8 °F 30.08 in Calm     70% 0.00 in 148 W/m2
09:59 82.7 °F 71.9 °F 30.08 in Calm     69.9% 0.00 in 171 W/m2
10:04 82.8 °F 72.3 °F 30.08 in Calm     70.4% 0.00 in 185 W/m2
10:09 82.9 °F 72.1 °F 30.08 in Calm     70% 0.00 in 204 W/m2
10:14 83 °F 72.3 °F 30.08 in Calm     70.3% 0.00 in 232 W/m2
10:19 83.1 °F 72.4 °F 30.08 in Calm     70.3% 0.00 in 241 W/m2
10:24 83.2 °F 72.4 °F 30.09 in Calm     70% 0.00 in 253 W/m2
10:29 83.4 °F 72.9 °F 30.09 in Calm     70.8% 0.00 in 258 W/m2
10:34 83.6 °F 73.2 °F 30.09 in Calm     71% 0.00 in 264 W/m2
10:39 83.7 °F 73.2 °F 30.09 in Calm     70.7% 0.00 in 278 W/m2
10:44 83.9 °F 73.6 °F 30.09 in Calm     71.1% 0.00 in 295 W/m2
10:49 84.1 °F 73.7 °F 30.09 in Calm   3 mph 71.1% 0.00 in 311 W/m2
10:54 84.3 °F 73.4 °F 30.09 in Calm   3 mph 69.8% 0.00 in 308 W/m2
10:59 84.4 °F 73.4 °F 30.09 in Calm   3 mph 69.5% 0.00 in 378 W/m2
11:04 84.7 °F 74.3 °F 30.09 in Calm   3 mph 71% 0.00 in 425 W/m2
11:09 85.2 °F 74.1 °F 30.09 in Calm   1 mph 69.6% 0.00 in 701 W/m2
11:14 85.5 °F 73.2 °F 30.09 in Calm   1 mph 66.8% 0.00 in 631 W/m2
11:19 85.8 °F 73.3 °F 30.09 in Calm   1 mph 66.3% 0.00 in 689 W/m2
11:24 86.4 °F 73.9 °F 30.09 in Calm   1 mph 66.5% 0.00 in 803 W/m2
11:29 87.1 °F 74 °F 30.09 in Calm   1 mph 65% 0.00 in 798 W/m2
11:34 87.7 °F 74.2 °F 30.09 in Calm   1 mph 64.3% 0.00 in 930 W/m2
11:39 88.5 °F 74.7 °F 30.09 in SW 0.1 mph 1 mph 63.8% 0.00 in 926 W/m2
11:44 89.5 °F 75.1 °F 30.09 in Calm   1 mph 62.9% 0.00 in 921 W/m2
11:49 90.3 °F 75.1 °F 30.09 in Calm   1 mph 61% 0.00 in 802 W/m2
11:54 90.5 °F 73.8 °F 30.09 in Calm   1 mph 58.3% 0.00 in 837 W/m2
11:59 90.3 °F 73.6 °F 30.09 in SW 0.3 mph 3 mph 58.1% 0.00 in 737 W/m2
12:00 90.2 °F 72.4 °F 30.08 in Calm   3 mph 56% 0.00 in 587 W/m2
12:09 89.8 °F 72.7 °F 30.08 in Calm     57.4% 0.00 in 401 W/m2
12:14 89.6 °F 73.3 °F 30.09 in Calm     58.8% 0.00 in 766 W/m2
12:19 89.6 °F 73.3 °F 30.08 in Calm     59% 0.00 in 889 W/m2
12:24 89.8 °F 73.3 °F 30.08 in Calm   1 mph 58.6% 0.00 in 977 W/m2
12:29 90.3 °F 74 °F 30.08 in Calm   1 mph 58.9% 0.00 in 997 W/m2
12:34 90.8 °F 73.6 °F 30.08 in SW 0.1 mph 2 mph 57.4% 0.00 in 997 W/m2
12:39 91 °F 73.3 °F 30.08 in Calm   2 mph 56.2% 0.00 in 805 W/m2
12:44 91.3 °F 73.6 °F 30.08 in Calm   2 mph 56.4% 0.00 in 812 W/m2
12:49 91.5 °F 73.5 °F 30.08 in SW 0.1 mph 2 mph 55.8% 0.00 in 735 W/m2
12:54 91.8 °F 73.8 °F 30.08 in Calm   2 mph 55.8% 0.00 in 747 W/m2
12:59 92 °F 73.5 °F 30.08 in Calm   2 mph 55% 0.00 in 628 W/m2
13:04 92.1 °F 73.2 °F 30.08 in Calm   2 mph 54.1% 0.00 in 675 W/m2
13:09 92.2 °F 73.4 °F 30.08 in Calm     54.4% 0.00 in 675 W/m2
13:14 92.3 °F 73.3 °F 30.08 in SW 0.4 mph 4 mph 54.2% 0.00 in 432 W/m2
13:19 92.2 °F 72.4 °F 30.08 in Calm   4 mph 52.5% 0.00 in 403 W/m2
13:24 92.1 °F 72.5 °F 30.08 in Calm   4 mph 52.9% 0.00 in 353 W/m2
13:29 92.1 °F 73.6 °F 30.08 in WSW 1.2 mph 5 mph 55% 0.00 in 380 W/m2
13:34 92.2 °F 74 °F 30.08 in Calm   5 mph 55.5% 0.00 in 318 W/m2
13:39 92.3 °F 73.5 °F 30.08 in WSW 0.1 mph 2 mph 54.5% 0.00 in 281 W/m2
13:44 92.4 °F 73.6 °F 30.08 in WSW 0.5 mph 4 mph 54.5% 0.00 in 265 W/m2
13:49 92.4 °F 73.4 °F 30.08 in Calm   4 mph 54.1% 0.00 in 243 W/m2
13:54 92.4 °F 74 °F 30.08 in Calm   4 mph 55.3% 0.00 in 258 W/m2
13:59 92.3 °F 74.2 °F 30.08 in West 0.7 mph 7 mph 55.7% 0.00 in 272 W/m2
14:04 92.3 °F 74.3 °F 30.08 in West 0.3 mph 7 mph 55.9% 0.00 in 274 W/m2
14:09 92.2 °F 73.7 °F 30.07 in West 1.1 mph 5 mph 54.9% 0.00 in 262 W/m2
14:14 91.9 °F 73.5 °F 30.07 in West 0.1 mph 5 mph 55% 0.00 in 239 W/m2
14:19 91.7 °F 74.3 °F 30.07 in West 1.3 mph 6 mph 56.9% 0.00 in 244 W/m2
14:24 91.4 °F 74.7 °F 30.07 in Calm   6 mph 58.3% 0.00 in 673 W/m2
14:29 91.3 °F 76 °F 30.07 in Calm   6 mph 61% 0.00 in 684 W/m2
14:34 91.4 °F 75.7 °F 30.07 in West 0.3 mph 6 mph 60.3% 0.00 in 619 W/m2
14:39 91.8 °F 74.1 °F 30.07 in West 0.1 mph 4 mph 56.3% 0.00 in 137 W/m2
14:44 92.3 °F 74 °F 30.06 in West 0.6 mph 6 mph 55.5% 0.00 in 130 W/m2
14:49 92.7 °F 73.6 °F 30.06 in West 0.4 mph 6 mph 54% 0.00 in 84 W/m2
14:54 93 °F 73.8 °F 30.06 in West 0.1 mph 6 mph 53.8% 0.00 in 84 W/m2
14:59 93.3 °F 73.1 °F 30.06 in West 0.1 mph 6 mph 52.1% 0.00 in 107 W/m2
15:04 93.5 °F 73.6 °F 30.06 in Calm   6 mph 52.7% 0.00 in 128 W/m2
15:09 93.6 °F 73.6 °F 30.05 in West 0.5 mph 3 mph 52.4% 0.00 in 132 W/m2
15:14 93.7 °F 74.3 °F 30.05 in West 1 mph 7 mph 53.5% 0.00 in 141 W/m2
15:19 94.1 °F 74.7 °F 30.05 in WSW 1.4 mph 7 mph 53.6% 0.00 in 221 W/m2
15:24 94.6 °F 74.4 °F 30.05 in WSW 0.6 mph 7 mph 52.2% 0.00 in 137 W/m2
15:29 95 °F 74.4 °F 30.05 in WSW 0.5 mph 7 mph 51.6% 0.00 in 139 W/m2
15:34 94.9 °F 74.3 °F 30.05 in Calm   7 mph 51.5% 0.00 in 144 W/m2
15:39 94.7 °F 73.9 °F 30.05 in Calm   1 mph 51.3% 0.00 in 144 W/m2
15:44 94.2 °F 73.7 °F 30.05 in Calm   2 mph 51.7% 0.00 in 135 W/m2
15:49 93.7 °F 73.7 °F 30.05 in Calm   2 mph 52.4% 0.00 in 139 W/m2
15:54 93.3 °F 74 °F 30.04 in WSW 0.1 mph 2 mph 53.5% 0.00 in 139 W/m2
15:59 93 °F 73.3 °F 30.04 in Calm   2 mph 52.8% 0.00 in 130 W/m2
16:09 92.5 °F 73.6 °F 30.04 in Calm     54.1% 0.00 in 139 W/m2
16:14 92.4 °F 73.8 °F 30.05 in Calm     54.8% 0.00 in 148 W/m2
16:19 92.3 °F 74.3 °F 30.04 in WSW 0.2 mph 5 mph 56% 0.00 in 151 W/m2
16:24 92.4 °F 74.4 °F 30.04 in WSW 0.7 mph 5 mph 56% 0.00 in 141 W/m2
16:29 92.5 °F 74.5 °F 30.05 in WSW 0.3 mph 5 mph 55.8% 0.00 in 120 W/m2
16:34 92.7 °F 74.4 °F 30.05 in West 0.6 mph 5 mph 55.4% 0.00 in 97 W/m2
16:39 92.9 °F 73.9 °F 30.05 in West 0.9 mph 5 mph 54.1% 0.00 in 81 W/m2
16:44 93.1 °F 74.1 °F 30.05 in West 0.2 mph 5 mph 54.3% 0.00 in 69 W/m2
16:49 93.1 °F 74.2 °F 30.05 in West 0.6 mph 5 mph 54.4% 0.00 in 62 W/m2
16:54 93.1 °F 74.2 °F 30.05 in West 0.6 mph 6 mph 54.3% 0.00 in 58 W/m2
16:59 93.1 °F 73.8 °F 30.05 in West 0.7 mph 6 mph 53.6% 0.00 in 58 W/m2
17:04 93.2 °F 73.8 °F 30.05 in West 2.4 mph 7 mph 53.5% 0.00 in 63 W/m2
17:09 93.3 °F 74.1 °F 30.05 in WNW 1 mph 7 mph 53.9% 0.00 in 84 W/m2
17:14 93.3 °F 73.7 °F 30.05 in West 0.6 mph 7 mph 53.2% 0.00 in 84 W/m2
17:19 93.2 °F 74.1 °F 30.05 in West 0.6 mph 7 mph 53.9% 0.00 in 83 W/m2
17:24 93.1 °F 73.8 °F 30.05 in West 0.4 mph 7 mph 53.6% 0.00 in 83 W/m2
17:29 92.9 °F 73.6 °F 30.06 in West 0.4 mph 7 mph 53.7% 0.00 in 74 W/m2
17:34 92.6 °F 73.7 °F 30.06 in West 0.2 mph 7 mph 54.3% 0.00 in 77 W/m2
17:39 92.4 °F 73.7 °F 30.05 in West 0.2 mph 4 mph 54.7% 0.00 in 77 W/m2
17:44 92.2 °F 74 °F 30.06 in Calm   4 mph 55.6% 0.00 in 74 W/m2
17:49 92 °F 74 °F 30.06 in Calm   4 mph 56% 0.00 in 72 W/m2
17:54 91.7 °F 73.7 °F 30.06 in West 0.1 mph 4 mph 56% 0.00 in 70 W/m2
17:59 91.3 °F 73.8 °F 30.06 in Calm   4 mph 56.7% 0.00 in 69 W/m2
18:04 91.1 °F 73.9 °F 30.05 in West 0.2 mph 4 mph 57.3% 0.00 in 67 W/m2
18:09 90.9 °F 73.9 °F 30.05 in West 0.1 mph 4 mph 57.6% 0.00 in 70 W/m2
18:14 90.7 °F 73.9 °F 30.05 in West 0.1 mph 4 mph 58% 0.00 in 72 W/m2
18:19 90.4 °F 73.7 °F 30.05 in Calm   4 mph 58% 0.00 in 74 W/m2
18:24 90.1 °F 73.9 °F 30.05 in Calm   4 mph 59% 0.00 in 72 W/m2
18:29 89.8 °F 73.8 °F 30.05 in Calm   4 mph 59.4% 0.00 in 70 W/m2
18:34 89.6 °F 73.8 °F 30.06 in Calm   4 mph 59.9% 0.00 in 69 W/m2
18:39 89.4 °F 73.8 °F 30.06 in West 0.1 mph 2 mph 60.2% 0.00 in 69 W/m2
18:44 89.3 °F 74.3 °F 30.06 in Calm   2 mph 61.4% 0.00 in 65 W/m2
18:49 89.2 °F 74.4 °F 30.06 in West 0.2 mph 3 mph 62% 0.00 in 60 W/m2
18:54 89 °F 74.4 °F 30.06 in Calm   3 mph 62.1% 0.00 in 54 W/m2
18:59 88.8 °F 74.6 °F 30.06 in Calm   3 mph 63% 0.00 in 47 W/m2
19:04 88.6 °F 74.4 °F 30.06 in Calm   3 mph 63% 0.00 in 40 W/m2
19:09 88.4 °F 74.4 °F 30.06 in Calm   1 mph 63.4% 0.00 in 32 W/m2
19:14 88.1 °F 74.4 °F 30.06 in Calm   1 mph 64% 0.00 in 26 W/m2
19:19 87.9 °F 74.3 °F 30.07 in West 0.2 mph 4 mph 64.3% 0.00 in 21 W/m2
19:24 87.6 °F 74.4 °F 30.07 in Calm   4 mph 65% 0.00 in 18 W/m2
19:29 87.4 °F 74.6 °F 30.08 in Calm   4 mph 66% 0.00 in 14 W/m2
19:34 87.2 °F 74.4 °F 30.08 in Calm   4 mph 66% 0.00 in 12 W/m2
19:39 87 °F 74.4 °F 30.08 in Calm     66.4% 0.00 in 9 W/m2
19:44 86.8 °F 74.5 °F 30.08 in Calm     67% 0.00 in 9 W/m2
19:49 86.6 °F 74.3 °F 30.09 in Calm     67% 0.00 in 7 W/m2
19:54 86.4 °F 74.6 °F 30.09 in Calm     68% 0.00 in 5 W/m2
19:59 86.3 °F 74.5 °F 30.09 in Calm     68% 0.00 in 0 W/m2
20:00 86.2 °F 74.4 °F 30.09 in Calm     68% 0.00 in 0 W/m2
20:09 86 °F 74.6 °F 30.09 in Calm     69% 0.00 in 0 W/m2
20:14 85.8 °F 74.5 °F 30.09 in Calm     69% 0.00 in 0 W/m2
20:19 85.7 °F 74.4 °F 30.09 in Calm     69% 0.00 in 0 W/m2
20:24 85.6 °F 74.2 °F 30.09 in Calm     69% 0.00 in 0 W/m2
20:29 85.4 °F 74.1 °F 30.09 in Calm     69% 0.00 in 0 W/m2
20:34 85.3 °F 74 °F 30.09 in Calm     69% 0.00 in 0 W/m2
20:39 85.2 °F 74.3 °F 30.09 in Calm     70% 0.00 in 0 W/m2
20:44 85.1 °F 74.2 °F 30.09 in Calm   2 mph 70% 0.00 in 0 W/m2
20:49 85 °F 74.1 °F 30.09 in Calm   2 mph 70% 0.00 in 0 W/m2
20:54 84.8 °F 74 °F 30.10 in Calm   2 mph 70% 0.00 in 0 W/m2
20:59 84.7 °F 74.2 °F 30.10 in Calm   2 mph 70.7% 0.00 in 0 W/m2
21:04 84.6 °F 74.2 °F 30.10 in Calm   2 mph 71% 0.00 in 0 W/m2
21:09 84.5 °F 74 °F 30.10 in Calm     71% 0.00 in 0 W/m2
21:14 84.4 °F 74 °F 30.10 in Calm     71.1% 0.00 in 0 W/m2
21:19 84.2 °F 74.2 °F 30.10 in Calm     72% 0.00 in 0 W/m2
21:24 84.1 °F 74.1 °F 30.10 in Calm     72% 0.00 in 0 W/m2
21:29 84 °F 74 °F 30.10 in Calm     72% 0.00 in 0 W/m2
21:34 83.9 °F 73.9 °F 30.10 in Calm     72% 0.00 in 0 W/m2
21:39 83.8 °F 73.8 °F 30.11 in Calm     72% 0.00 in 0 W/m2
21:44 83.6 °F 73.9 °F 30.11 in Calm     72.7% 0.00 in 0 W/m2
21:49 83.5 °F 73.9 °F 30.11 in Calm     73% 0.00 in 0 W/m2
21:54 83.3 °F 73.8 °F 30.11 in Calm     73% 0.00 in 0 W/m2
21:59 83.2 °F 73.7 °F 30.11 in Calm     73% 0.00 in 0 W/m2
22:04 83.1 °F 73.6 °F 30.11 in Calm     73% 0.00 in 0 W/m2
22:09 83 °F 73.4 °F 30.11 in Calm     73% 0.00 in 0 W/m2
22:14 82.9 °F 73.3 °F 30.11 in Calm     73% 0.00 in 0 W/m2
22:19 82.8 °F 73.3 °F 30.11 in Calm     73% 0.00 in 0 W/m2
22:24 82.7 °F 73.5 °F 30.11 in Calm     74% 0.00 in 0 W/m2
22:29 82.5 °F 73.4 °F 30.11 in Calm   1 mph 74% 0.00 in 0 W/m2
22:34 82.3 °F 73.2 °F 30.11 in Calm   1 mph 74% 0.00 in 0 W/m2
22:39 82.2 °F 73.1 °F 30.11 in Calm     74% 0.00 in 0 W/m2
22:44 82.1 °F 73 °F 30.11 in Calm     74% 0.00 in 0 W/m2
22:49 81.9 °F 73 °F 30.11 in Calm     74.3% 0.00 in 0 W/m2
22:54 81.8 °F 73.1 °F 30.11 in Calm     75% 0.00 in 0 W/m2
22:59 81.6 °F 72.9 °F 30.11 in Calm     75% 0.00 in 0 W/m2
23:04 81.4 °F 72.8 °F 30.11 in Calm     75.2% 0.00 in 0 W/m2
23:09 81.3 °F 73 °F 30.11 in Calm     76% 0.00 in 0 W/m2
23:14 81.1 °F 72.9 °F 30.11 in Calm     76% 0.00 in 0 W/m2
23:19 81 °F 72.7 °F 30.11 in Calm     76% 0.00 in 0 W/m2
23:24 80.8 °F 72.6 °F 30.11 in Calm     76% 0.00 in 0 W/m2
23:29 80.7 °F 72.7 °F 30.11 in Calm     76.7% 0.00 in 0 W/m2
23:34 80.5 °F 72.6 °F 30.11 in Calm     76.9% 0.00 in 0 W/m2
23:39 80.4 °F 72.5 °F 30.11 in Calm     77% 0.00 in 0 W/m2
23:44 80.2 °F 72.5 °F 30.11 in Calm     77.4% 0.00 in 0 W/m2
23:49 80.1 °F 72.7 °F 30.11 in Calm     78% 0.00 in 0 W/m2
23:54 80 °F 72.5 °F 30.11 in Calm     78% 0.00 in 0 W/m2
23:59 79.9 °F 72.5 °F 30.11 in Calm     78.3% 0.00 in 0 W/m2
Hartford County Weather
Compliments of Weather Underground - 4 mb